Rhapsody Of The Seas — C6UA2 — position and weather

sailwx.info

Track history (hours):
 
Tides and Currents Weather Stations Pressure Air Temp Water Temp Dewpoint Dewpoint Depression Visibility Wind Speed Wind Dir Waves Ship Positions

Rhapsody Of The Seas

Last reported at 2019-Oct-22 22:59 UTC. Time now 2019-Oct-22 23:34 UTC.
Position N 40°49' E 012°31'.

Type: Passenger vessel. MMSI: 311805000.

Date/timePositionNaut miles runAvg speedWind from/ knotsBaromVisibWave heightAir tempDewpointWater temp
2019-Oct-22 22:59N 40°49' E 012°31'918.9
2019-Oct-22 22:30N 40°42' E 012°38'1019.5
2019-Oct-22 22:00N 40°34' E 012°46'1019.6
2019-Oct-22 21:30N 40°27' E 012°55'1019.3
2019-Oct-22 21:00N 40°20' E 013°04'918.9
2019-Oct-22 20:30N 40°13' E 013°13'6319.2
2019-Oct-22 17:12N 39°29' E 014°11'2619.5
2019-Oct-22 15:51N 39°10' E 014°35'5019.1
2019-Oct-22 13:14N 38°36' E 015°21'418.7
2019-Oct-22 13:00N 38°33' E 015°26'918.8
2019-Oct-22 12:30N 38°27' E 015°34'1019.1
2019-Oct-22 12:00N 38°19' E 015°42'918.1
2019-Oct-22 11:30N 38°11' E 015°37'918.9
2019-Oct-22 11:00N 38°02' E 015°35'918.0
2019-Oct-22 10:30N 37°53' E 015°39'1118.5
2019-Oct-22 09:55N 37°52' E 015°53'3518.1
2019-Oct-22 07:58N 38°11' E 016°30'17717.7
2019-Oct-21 22:00N 40°42' E 018°30'282 9.8 010 / 91024.9 5.4 21.0 23.0
2019-Oct-20 17:19N 44°18' E 014°24'2317.1
2019-Oct-20 16:00N 44°12' E 014°54'35 2.3 170 / 171022.9 5.4 23.0 22.0
2019-Oct-20 01:09N 44°28' E 014°11'611.9
2019-Oct-20 00:41N 44°29' E 014°03'212.0
2019-Oct-20 00:30N 44°30' E 014°00'612.1
2019-Oct-20 00:00N 44°31' E 013°52'813.4
2019-Oct-19 23:26N 44°31' E 013°41'712.2
2019-Oct-19 22:51N 44°36' E 013°35'412.7
2019-Oct-19 22:31N 44°40' E 013°31'612.6
2019-Oct-19 22:00N 44°45' E 013°26'612.5
2019-Oct-19 21:30N 44°50' E 013°21'612.5
2019-Oct-19 21:00N 44°55' E 013°16'612.4
2019-Oct-19 20:30N 44°60' E 013°10'612.2
2019-Oct-19 20:00N 45°04' E 013°04'5287.0
2019-Oct-19 20:00N 45°00' E 013°00'816.8 180 / 191019.9 5.4 20.0 24.0
2019-Oct-19 19:30N 45°08' E 012°57'612.5
2019-Oct-19 19:00N 45°12' E 012°50'612.7
2019-Oct-19 18:30N 45°16' E 012°43'612.8
2019-Oct-19 18:00N 45°20' E 012°36'612.3
2019-Oct-19 17:30N 45°24' E 012°29'5 9.1
2019-Oct-19 17:01N 45°26' E 012°24'2 4.7
2019-Oct-19 16:31N 45°26' E 012°20'1 2.7
2019-Oct-19 16:00N 45°26' E 012°19'0 0.1
2019-Oct-19 15:28N 45°26' E 012°19'0 0.0
2019-Oct-19 14:58N 45°26' E 012°19'0 0.0
2019-Oct-19 14:19N 45°26' E 012°19'0 0.0
2019-Oct-19 13:52N 45°26' E 012°19'0 0.0
2019-Oct-19 13:28N 45°26' E 012°19'0 0.0
2019-Oct-19 12:58N 45°26' E 012°19'0 0.0
2019-Oct-19 12:28N 45°26' E 012°19'0 0.0
2019-Oct-19 11:58N 45°26' E 012°19'0 0.0
2019-Oct-19 11:28N 45°26' E 012°19'0 0.0
2019-Oct-19 10:55N 45°26' E 012°19'0 0.0
2019-Oct-19 10:28N 45°26' E 012°19'0 0.0
2019-Oct-19 09:58N 45°26' E 012°19'0 0.0
2019-Oct-19 09:28N 45°26' E 012°19'0 0.0
2019-Oct-19 08:58N 45°26' E 012°19'0 0.0
2019-Oct-19 08:28N 45°26' E 012°19'0 0.0
2019-Oct-19 07:58N 45°26' E 012°19'0 0.0
2019-Oct-19 07:22N 45°26' E 012°19'0 0.0
2019-Oct-19 06:58N 45°26' E 012°19'0 0.0
2019-Oct-19 06:28N 45°26' E 012°19'0 0.0
2019-Oct-19 05:58N 45°26' E 012°19'0 0.0
2019-Oct-19 05:25N 45°26' E 012°19'0 0.0
2019-Oct-19 04:58N 45°26' E 012°19'0 0.1
2019-Oct-19 04:28N 45°26' E 012°19'0 0.0
2019-Oct-19 03:58N 45°26' E 012°19'0 0.0
2019-Oct-19 03:25N 45°26' E 012°19'0 0.0
2019-Oct-19 03:00N 45°26' E 012°19'1 2.4
2019-Oct-19 02:30N 45°26' E 012°20'2 4.0
2019-Oct-19 02:00N 45°26' E 012°23'4 7.7
2019-Oct-19 01:30N 45°24' E 012°28'714.6
2019-Oct-19 01:01N 45°20' E 012°37'815.0
2019-Oct-19 00:31N 45°16' E 012°45'815.4
2019-Oct-19 00:01N 45°12' E 012°55'815.6
2019-Oct-18 23:31N 45°07' E 013°03'815.6
2019-Oct-18 23:00N 45°03' E 013°12'815.6
2019-Oct-18 22:31N 44°57' E 013°20'815.7
2019-Oct-18 22:01N 44°51' E 013°27'815.9
2019-Oct-18 21:31N 44°44' E 013°33'816.0
2019-Oct-18 21:01N 44°38' E 013°39'816.1
2019-Oct-18 20:31N 44°31' E 013°46'714.4
2019-Oct-18 20:00N 44°24' E 013°48'1019.6 190 / 101022.0 5.4 19.0 24.0
2019-Oct-18 19:29N 44°18' E 013°58'816.3
2019-Oct-18 19:01N 44°11' E 014°04'816.5
2019-Oct-18 18:30N 44°04' E 014°11'51313.0
2019-Oct-17 03:00N 37°12' E 020°54'18714.9 360 / 71019.910.8 23.015.2
2019-Oct-16 14:30N 37°13' E 024°49'918.7
2019-Oct-16 14:00N 37°18' E 024°59'918.8
2019-Oct-16 13:30N 37°24' E 025°08'917.0
2019-Oct-16 13:00N 37°28' E 025°17'2 3.1
2019-Oct-16 12:27N 37°27' E 025°19'0 0.0
2019-Oct-16 12:00N 37°27' E 025°19'0 0.0
2019-Oct-16 11:30N 37°27' E 025°19'0 0.0
2019-Oct-16 11:00N 37°27' E 025°19'0 0.0
2019-Oct-16 10:27N 37°27' E 025°19'0 0.0
2019-Oct-16 10:00N 37°27' E 025°19'0 0.0
2019-Oct-16 09:27N 37°27' E 025°19'0 0.0
2019-Oct-16 09:00N 37°27' E 025°19'0 0.0
2019-Oct-16 08:30N 37°27' E 025°19'0 0.0
2019-Oct-16 08:00N 37°27' E 025°19'0 0.0
2019-Oct-16 07:30N 37°27' E 025°19'0 0.0
2019-Oct-16 07:00N 37°27' E 025°19'0 0.0
2019-Oct-16 06:30N 37°27' E 025°19'0 0.1
2019-Oct-16 06:00N 37°27' E 025°19'0 0.0
2019-Oct-16 05:30N 37°27' E 025°19'0 0.0
2019-Oct-16 04:57N 37°27' E 025°19'0 0.1
2019-Oct-16 04:30N 37°27' E 025°19'0 0.1
2019-Oct-16 04:00N 37°27' E 025°19'1 1.7
2019-Oct-16 03:30N 37°27' E 025°18'4 8.2
2019-Oct-16 03:00N 37°29' E 025°13'4 8.9
2019-Oct-16 02:30N 37°30' E 025°08'4 8.9
2019-Oct-16 02:00N 37°31' E 025°03'5 9.4
2019-Oct-16 01:30N 37°32' E 024°57'5 9.2
2019-Oct-16 01:00N 37°33' E 024°51'5 9.6
2019-Oct-16 00:30N 37°33' E 024°45'7 9.6
2019-Oct-15 23:45N 37°32' E 024°36'3810.2
2019-Oct-15 20:00N 37°36' E 023°48'150.7 170 / 151020.9 5.4 23.0 20.0
2019-Oct-15 19:58N 37°36' E 023°50'5 9.8
2019-Oct-15 19:30N 37°38' E 023°44'5 9.7
2019-Oct-15 19:00N 37°42' E 023°41'510.1
2019-Oct-15 18:30N 37°46' E 023°38'5 9.8
2019-Oct-15 18:00N 37°51' E 023°36'610.9
2019-Oct-15 17:30N 37°56' E 023°38'0 0.6
2019-Oct-15 16:56N 37°56' E 023°38'0 0.0
2019-Oct-15 16:29N 37°56' E 023°38'0 0.0
2019-Oct-15 15:59N 37°56' E 023°38'0 0.0
2019-Oct-15 15:29N 37°56' E 023°38'0 0.0
2019-Oct-15 14:56N 37°56' E 023°38'0 0.0
2019-Oct-15 14:29N 37°56' E 023°38'0 0.0
2019-Oct-15 13:59N 37°56' E 023°38'0 0.0
2019-Oct-15 13:29N 37°56' E 023°38'0 0.0
2019-Oct-15 12:59N 37°56' E 023°38'0 0.0
2019-Oct-15 12:29N 37°56' E 023°38'0 0.0
2019-Oct-15 11:59N 37°56' E 023°38'0 0.0
2019-Oct-15 11:29N 37°56' E 023°38'0 0.0
2019-Oct-15 10:59N 37°56' E 023°38'0 0.0
2019-Oct-15 10:26N 37°56' E 023°38'0 0.0
2019-Oct-15 09:59N 37°56' E 023°38'0 0.0
2019-Oct-15 09:26N 37°56' E 023°38'0 0.0
2019-Oct-15 09:00N 37°56' E 023°38'0 0.7
2019-Oct-15 08:30N 37°56' E 023°38'2 3.9
2019-Oct-15 08:00N 37°55' E 023°36'816.0
2019-Oct-15 07:30N 37°48' E 023°41'816.3
2019-Oct-15 07:01N 37°40' E 023°45'816.4
2019-Oct-15 06:30N 37°32' E 023°45'1018.7
2019-Oct-15 05:57N 37°21' E 023°44'57811.8
2019-Oct-13 05:00N 43°48' E 014°18'6016.9 220 / 71025.910.8 19.0 8.3
2019-Oct-13 01:27N 44°39' E 013°33'1022.1
2019-Oct-13 01:00N 44°46' E 013°25'1122.4
2019-Oct-13 00:30N 44°55' E 013°15'1122.6
2019-Oct-13 00:00N 45°03' E 013°04'1122.3
2019-Oct-12 23:30N 45°11' E 012°52'1122.0
2019-Oct-12 23:00N 45°18' E 012°40'  
Track history (hours):
 
Tides and Currents Weather Stations Pressure Air Temp Water Temp Dewpoint Dewpoint Depression Visibility Wind Speed Wind Dir Waves Ship Positions

Rhapsody Of The Seas

Last reported at 2019-Oct-22 22:59 UTC. Time now 2019-Oct-22 23:34 UTC.
Position N 40°49' E 012°31'.

Type: Passenger vessel. MMSI: 311805000.

Date/timePositionNaut miles runAvg speedWind from/ knotsBaromVisibWave heightAir tempDewpointWater temp
2019-Oct-22 22:59N 40°49' E 012°31'918.9
2019-Oct-22 22:30N 40°42' E 012°38'1019.5
2019-Oct-22 22:00N 40°34' E 012°46'1019.6
2019-Oct-22 21:30N 40°27' E 012°55'1019.3
2019-Oct-22 21:00N 40°20' E 013°04'918.9
2019-Oct-22 20:30N 40°13' E 013°13'6319.2
2019-Oct-22 17:12N 39°29' E 014°11'2619.5
2019-Oct-22 15:51N 39°10' E 014°35'5019.1
2019-Oct-22 13:14N 38°36' E 015°21'418.7
2019-Oct-22 13:00N 38°33' E 015°26'918.8
2019-Oct-22 12:30N 38°27' E 015°34'1019.1
2019-Oct-22 12:00N 38°19' E 015°42'918.1
2019-Oct-22 11:30N 38°11' E 015°37'918.9
2019-Oct-22 11:00N 38°02' E 015°35'918.0
2019-Oct-22 10:30N 37°53' E 015°39'1118.5
2019-Oct-22 09:55N 37°52' E 015°53'3518.1
2019-Oct-22 07:58N 38°11' E 016°30'17717.7
2019-Oct-21 22:00N 40°42' E 018°30'282 9.8 010 / 91024.9 5.4 21.0 23.0
2019-Oct-20 17:19N 44°18' E 014°24'2317.1
2019-Oct-20 16:00N 44°12' E 014°54'35 2.3 170 / 171022.9 5.4 23.0 22.0
2019-Oct-20 01:09N 44°28' E 014°11'611.9
2019-Oct-20 00:41N 44°29' E 014°03'212.0
2019-Oct-20 00:30N 44°30' E 014°00'612.1
2019-Oct-20 00:00N 44°31' E 013°52'813.4
2019-Oct-19 23:26N 44°31' E 013°41'712.2
2019-Oct-19 22:51N 44°36' E 013°35'412.7
2019-Oct-19 22:31N 44°40' E 013°31'612.6
2019-Oct-19 22:00N 44°45' E 013°26'612.5
2019-Oct-19 21:30N 44°50' E 013°21'612.5
2019-Oct-19 21:00N 44°55' E 013°16'612.4
2019-Oct-19 20:30N 44°60' E 013°10'612.2
2019-Oct-19 20:00N 45°04' E 013°04'5287.0
2019-Oct-19 20:00N 45°00' E 013°00'816.8 180 / 191019.9 5.4 20.0 24.0
2019-Oct-19 19:30N 45°08' E 012°57'612.5
2019-Oct-19 19:00N 45°12' E 012°50'612.7
2019-Oct-19 18:30N 45°16' E 012°43'612.8
2019-Oct-19 18:00N 45°20' E 012°36'612.3
2019-Oct-19 17:30N 45°24' E 012°29'5 9.1
2019-Oct-19 17:01N 45°26' E 012°24'2 4.7
2019-Oct-19 16:31N 45°26' E 012°20'1 2.7
2019-Oct-19 16:00N 45°26' E 012°19'0 0.1
2019-Oct-19 15:28N 45°26' E 012°19'0 0.0
2019-Oct-19 14:58N 45°26' E 012°19'0 0.0
2019-Oct-19 14:19N 45°26' E 012°19'0 0.0
2019-Oct-19 13:52N 45°26' E 012°19'0 0.0
2019-Oct-19 13:28N 45°26' E 012°19'0 0.0
2019-Oct-19 12:58N 45°26' E 012°19'0 0.0
2019-Oct-19 12:28N 45°26' E 012°19'0 0.0
2019-Oct-19 11:58N 45°26' E 012°19'0 0.0
2019-Oct-19 11:28N 45°26' E 012°19'0 0.0
2019-Oct-19 10:55N 45°26' E 012°19'0 0.0
2019-Oct-19 10:28N 45°26' E 012°19'0 0.0
2019-Oct-19 09:58N 45°26' E 012°19'0 0.0
2019-Oct-19 09:28N 45°26' E 012°19'0 0.0
2019-Oct-19 08:58N 45°26' E 012°19'0 0.0
2019-Oct-19 08:28N 45°26' E 012°19'0 0.0
2019-Oct-19 07:58N 45°26' E 012°19'0 0.0
2019-Oct-19 07:22N 45°26' E 012°19'0 0.0
2019-Oct-19 06:58N 45°26' E 012°19'0 0.0
2019-Oct-19 06:28N 45°26' E 012°19'0 0.0
2019-Oct-19 05:58N 45°26' E 012°19'0 0.0
2019-Oct-19 05:25N 45°26' E 012°19'0 0.0
2019-Oct-19 04:58N 45°26' E 012°19'0 0.1
2019-Oct-19 04:28N 45°26' E 012°19'0 0.0
2019-Oct-19 03:58N 45°26' E 012°19'0 0.0
2019-Oct-19 03:25N 45°26' E 012°19'0 0.0
2019-Oct-19 03:00N 45°26' E 012°19'1 2.4
2019-Oct-19 02:30N 45°26' E 012°20'2 4.0
2019-Oct-19 02:00N 45°26' E 012°23'4 7.7
2019-Oct-19 01:30N 45°24' E 012°28'714.6
2019-Oct-19 01:01N 45°20' E 012°37'815.0
2019-Oct-19 00:31N 45°16' E 012°45'815.4
2019-Oct-19 00:01N 45°12' E 012°55'815.6
2019-Oct-18 23:31N 45°07' E 013°03'815.6
2019-Oct-18 23:00N 45°03' E 013°12'815.6
2019-Oct-18 22:31N 44°57' E 013°20'815.7
2019-Oct-18 22:01N 44°51' E 013°27'815.9
2019-Oct-18 21:31N 44°44' E 013°33'816.0
2019-Oct-18 21:01N 44°38' E 013°39'816.1
2019-Oct-18 20:31N 44°31' E 013°46'714.4
2019-Oct-18 20:00N 44°24' E 013°48'1019.6 190 / 101022.0 5.4 19.0 24.0
2019-Oct-18 19:29N 44°18' E 013°58'816.3
2019-Oct-18 19:01N 44°11' E 014°04'816.5
2019-Oct-18 18:30N 44°04' E 014°11'51313.0
2019-Oct-17 03:00N 37°12' E 020°54'18714.9 360 / 71019.910.8 23.015.2
2019-Oct-16 14:30N 37°13' E 024°49'918.7
2019-Oct-16 14:00N 37°18' E 024°59'918.8
2019-Oct-16 13:30N 37°24' E 025°08'917.0
2019-Oct-16 13:00N 37°28' E 025°17'2 3.1
2019-Oct-16 12:27N 37°27' E 025°19'0 0.0
2019-Oct-16 12:00N 37°27' E 025°19'0 0.0
2019-Oct-16 11:30N 37°27' E 025°19'0 0.0
2019-Oct-16 11:00N 37°27' E 025°19'0 0.0
2019-Oct-16 10:27N 37°27' E 025°19'0 0.0
2019-Oct-16 10:00N 37°27' E 025°19'0 0.0
2019-Oct-16 09:27N 37°27' E 025°19'0 0.0
2019-Oct-16 09:00N 37°27' E 025°19'0 0.0
2019-Oct-16 08:30N 37°27' E 025°19'0 0.0
2019-Oct-16 08:00N 37°27' E 025°19'0 0.0
2019-Oct-16 07:30N 37°27' E 025°19'0 0.0
2019-Oct-16 07:00N 37°27' E 025°19'0 0.0
2019-Oct-16 06:30N 37°27' E 025°19'0 0.1
2019-Oct-16 06:00N 37°27' E 025°19'0 0.0
2019-Oct-16 05:30N 37°27' E 025°19'0 0.0
2019-Oct-16 04:57N 37°27' E 025°19'0 0.1
2019-Oct-16 04:30N 37°27' E 025°19'0 0.1
2019-Oct-16 04:00N 37°27' E 025°19'1 1.7
2019-Oct-16 03:30N 37°27' E 025°18'4 8.2
2019-Oct-16 03:00N 37°29' E 025°13'4 8.9
2019-Oct-16 02:30N 37°30' E 025°08'4 8.9
2019-Oct-16 02:00N 37°31' E 025°03'5 9.4
2019-Oct-16 01:30N 37°32' E 024°57'5 9.2
2019-Oct-16 01:00N 37°33' E 024°51'5 9.6
2019-Oct-16 00:30N 37°33' E 024°45'7 9.6
2019-Oct-15 23:45N 37°32' E 024°36'3810.2
2019-Oct-15 20:00N 37°36' E 023°48'150.7 170 / 151020.9 5.4 23.0 20.0
2019-Oct-15 19:58N 37°36' E 023°50'5 9.8
2019-Oct-15 19:30N 37°38' E 023°44'5 9.7
2019-Oct-15 19:00N 37°42' E 023°41'510.1
2019-Oct-15 18:30N 37°46' E 023°38'5 9.8
2019-Oct-15 18:00N 37°51' E 023°36'610.9
2019-Oct-15 17:30N 37°56' E 023°38'0 0.6
2019-Oct-15 16:56N 37°56' E 023°38'0 0.0
2019-Oct-15 16:29N 37°56' E 023°38'0 0.0
2019-Oct-15 15:59N 37°56' E 023°38'0 0.0
2019-Oct-15 15:29N 37°56' E 023°38'0 0.0
2019-Oct-15 14:56N 37°56' E 023°38'0 0.0
2019-Oct-15 14:29N 37°56' E 023°38'0 0.0
2019-Oct-15 13:59N 37°56' E 023°38'0 0.0
2019-Oct-15 13:29N 37°56' E 023°38'0 0.0
2019-Oct-15 12:59N 37°56' E 023°38'0 0.0
2019-Oct-15 12:29N 37°56' E 023°38'0 0.0
2019-Oct-15 11:59N 37°56' E 023°38'0 0.0
2019-Oct-15 11:29N 37°56' E 023°38'0 0.0
2019-Oct-15 10:59N 37°56' E 023°38'0 0.0
2019-Oct-15 10:26N 37°56' E 023°38'0 0.0
2019-Oct-15 09:59N 37°56' E 023°38'0 0.0
2019-Oct-15 09:26N 37°56' E 023°38'0 0.0
2019-Oct-15 09:00N 37°56' E 023°38'0 0.7
2019-Oct-15 08:30N 37°56' E 023°38'2 3.9
2019-Oct-15 08:00N 37°55' E 023°36'816.0
2019-Oct-15 07:30N 37°48' E 023°41'816.3
2019-Oct-15 07:01N 37°40' E 023°45'816.4
2019-Oct-15 06:30N 37°32' E 023°45'1018.7
2019-Oct-15 05:57N 37°21' E 023°44'57811.8
2019-Oct-13 05:00N 43°48' E 014°18'6016.9 220 / 71025.910.8 19.0 8.3
2019-Oct-13 01:27N 44°39' E 013°33'1022.1
2019-Oct-13 01:00N 44°46' E 013°25'1122.4
2019-Oct-13 00:30N 44°55' E 013°15'1122.6
2019-Oct-13 00:00N 45°03' E 013°04'1122.3
2019-Oct-12 23:30N 45°11' E 012°52'1122.0
2019-Oct-12 23:00N 45°18' E 012°40'  

Dump ship's entire track history